Terminal Aerodrome Forecast
Issued by NWS

Home | Current Version | Previous Version | Text Only | Print | Product List | Glossary On
Versions: 1 2 3 4 5 6 7 8 9 10 11 12 13 14 15 16 17 18 19 20 21 22 23 24 25
454
FTUS44 KFWD 092052 AAA
TAFGKY
TAF AMD
KGKY 092052Z 0921/1018 31010G16KT P6SM SKC
     FM100100 35008KT P6SM SKC
     FM100300 VRB05KT P6SM SKC
     FM101600 20008KT P6SM SKC=

USA.gov is the U.S. government's official web portal to all federal, state and local government web resources and services.